Time;durP1;ratioP1;P1;durP2;ratioP2;P2;SDS_P1;SDS_P2;PMS_P1;PMS_P2;Temp;Humidity;BMP_temperature;BMP_pressure;BME280_temperature;BME280_humidity;BME280_pressure;Samples;Min_cycle;Max_cycle;Signal;HPM_P1;HPM_P2
2021/12/23 00:00:58;;;;;;;209.82;159.87;;;20.70;39.40;;;;;;4381166;60;21612;-35
2021/12/23 00:06:02;;;;;;;201.73;150.87;;;20.60;39.40;;;;;;4360743;60;21549;-37
2021/12/23 00:11:03;;;;;;;205.80;153.87;;;20.70;39.40;;;;;;4375798;60;21051;-37
2021/12/23 00:16:16;;;;;;;202.32;152.18;;;20.70;39.40;;;;;;4340398;60;21585;-36
2021/12/23 00:26:37;;;;;;;193.18;144.85;;;20.60;39.20;;;;;;4338744;60;21071;-36
2021/12/23 00:31:38;;;;;;;196.25;147.13;;;20.60;39.30;;;;;;4348268;60;21502;-37
2021/12/23 00:36:41;;;;;;;196.37;150.07;;;20.60;39.20;;;;;;4370844;60;21129;-37
2021/12/23 00:41:44;;;;;;;197.30;146.98;;;20.60;39.30;;;;;;4372215;60;21809;-38
2021/12/23 00:46:45;;;;;;;199.38;153.20;;;20.60;39.20;;;;;;4348005;60;21647;-35
2021/12/23 00:51:46;;;;;;;189.52;145.62;;;20.60;39.20;;;;;;4343407;60;21083;-35
2021/12/23 00:56:49;;;;;;;187.07;144.23;;;20.60;39.10;;;;;;4373352;60;21083;-38
2021/12/23 01:01:50;;;;;;;191.93;147.20;;;20.60;39.20;;;;;;4363960;60;22253;-37
2021/12/23 01:06:51;;;;;;;186.15;141.32;;;20.60;39.20;;;;;;4338771;61;21051;-35
2021/12/23 01:11:53;;;;;;;181.85;136.40;;;20.60;39.10;;;;;;4342901;60;21597;-37
2021/12/23 01:17:11;;;;;;;192.00;146.62;;;20.60;39.20;;;;;;4395863;60;21602;-36
2021/12/23 01:22:12;;;;;;;180.40;136.05;;;20.60;39.10;;;;;;4338571;64;21199;-34
2021/12/23 01:27:13;;;;;;;185.70;138.62;;;20.60;39.00;;;;;;4339206;64;21031;-36
2021/12/23 01:32:14;;;;;;;181.20;136.48;;;20.50;38.90;;;;;;4361839;60;21112;-35
2021/12/23 01:37:15;;;;;;;184.55;140.35;;;20.50;39.00;;;;;;4346740;60;21613;-34
2021/12/23 01:42:16;;;;;;;174.87;130.95;;;20.50;39.30;;;;;;4342864;60;21127;-38
2021/12/23 01:47:17;;;;;;;183.55;140.45;;;20.50;38.90;;;;;;4346541;60;21198;-37
2021/12/23 01:52:18;;;;;;;174.48;130.95;;;20.50;38.90;;;;;;4345680;60;21674;-35
2021/12/23 01:57:19;;;;;;;172.60;132.98;;;20.50;38.90;;;;;;4342207;60;21143;-37
2021/12/23 02:02:20;;;;;;;178.32;134.32;;;20.50;38.80;;;;;;4339024;64;21051;-37
2021/12/23 02:07:21;;;;;;;173.50;133.35;;;20.50;38.80;;;;;;4364665;60;21043;-34
2021/12/23 02:12:23;;;;;;;170.20;129.40;;;20.50;38.80;;;;;;4343646;60;21087;-34
2021/12/23 02:17:23;;;;;;;172.13;129.32;;;20.50;38.80;;;;;;4364103;60;21067;-36
2021/12/23 02:22:24;;;;;;;169.35;129.15;;;20.50;38.80;;;;;;4364688;60;21168;-36
2021/12/23 02:27:25;;;;;;;158.02;122.15;;;20.40;38.70;;;;;;4339349;64;21645;-36
2021/12/23 02:32:26;;;;;;;164.05;125.93;;;20.40;38.70;;;;;;4339045;64;21055;-35
2021/12/23 02:37:27;;;;;;;157.10;117.10;;;20.40;38.70;;;;;;4350744;60;21525;-36
2021/12/23 02:42:28;;;;;;;163.68;126.70;;;20.40;38.70;;;;;;4345384;60;21661;-36
2021/12/23 02:47:29;;;;;;;161.20;123.85;;;20.40;38.60;;;;;;4347103;60;21113;-37
2021/12/23 02:52:31;;;;;;;155.30;116.28;;;20.40;38.60;;;;;;4346689;60;21052;-36
2021/12/23 02:57:33;;;;;;;158.70;120.55;;;20.40;38.60;;;;;;4355526;60;21586;-37
2021/12/23 03:02:38;;;;;;;152.02;116.10;;;20.40;38.50;;;;;;4357442;60;21104;-36
2021/12/23 03:07:39;;;;;;;149.02;114.57;;;20.40;38.50;;;;;;4348843;60;21163;-37
2021/12/23 03:12:40;;;;;;;150.55;117.60;;;20.40;38.50;;;;;;4341617;60;21078;-36
2021/12/23 03:17:41;;;;;;;152.55;115.50;;;20.40;38.50;;;;;;4338473;64;21129;-34
2021/12/23 03:22:41;;;;;;;151.65;117.28;;;20.40;38.40;;;;;;4356683;60;21087;-36
2021/12/23 03:27:42;;;;;;;145.80;114.40;;;20.30;38.40;;;;;;4362598;60;21052;-37
2021/12/23 03:32:43;;;;;;;145.43;112.15;;;20.30;38.30;;;;;;4363021;60;21540;-35
2021/12/23 03:37:44;;;;;;;146.68;114.12;;;20.40;38.40;;;;;;4341739;60;21094;-36
2021/12/23 03:42:46;;;;;;;141.60;111.30;;;20.30;38.40;;;;;;4350330;60;21056;-37
2021/12/23 03:47:48;;;;;;;143.85;111.60;;;20.30;38.30;;;;;;4343204;60;21552;-35
2021/12/23 03:52:50;;;;;;;141.77;109.07;;;20.30;38.30;;;;;;4339000;64;21521;-37
2021/12/23 03:57:50;;;;;;;134.63;102.97;;;20.30;38.30;;;;;;4339705;60;21087;-38
2021/12/23 04:02:52;;;;;;;135.30;102.03;;;20.30;38.20;;;;;;4339148;64;21583;-33
2021/12/23 04:07:53;;;;;;;131.93;101.15;;;20.30;38.10;;;;;;4354581;60;21148;-36
2021/12/23 04:12:54;;;;;;;135.35;104.30;;;20.30;38.20;;;;;;4348585;60;21673;-36
2021/12/23 04:17:55;;;;;;;129.35;101.38;;;20.30;38.10;;;;;;4338933;64;21052;-34
2021/12/23 04:22:56;;;;;;;121.47;94.68;;;20.30;38.20;;;;;;4352159;60;21112;-37
2021/12/23 04:28:01;;;;;;;133.57;102.75;;;20.30;38.20;;;;;;4339242;64;21039;-35
2021/12/23 04:33:02;;;;;;;127.78;99.43;;;20.30;38.10;;;;;;4338802;61;21612;-35
2021/12/23 04:38:04;;;;;;;126.15;96.65;;;20.30;38.10;;;;;;4342423;60;21075;-35
2021/12/23 04:43:06;;;;;;;127.35;98.97;;;20.30;38.10;;;;;;4353817;60;21064;-33
2021/12/23 04:48:07;;;;;;;119.32;94.40;;;20.30;38.20;;;;;;4343409;60;21164;-35
2021/12/23 04:53:07;;;;;;;119.70;92.90;;;20.30;38.20;;;;;;4342425;60;21638;-35
2021/12/23 04:58:09;;;;;;;122.90;92.55;;;20.30;38.20;;;;;;4338210;64;21122;-34
2021/12/23 05:03:10;;;;;;;121.72;94.22;;;20.20;38.10;;;;;;4357973;60;21585;-36
2021/12/23 05:08:11;;;;;;;115.80;90.55;;;20.20;38.10;;;;;;4349610;60;21044;-33
2021/12/23 05:13:12;;;;;;;112.53;88.55;;;20.20;38.20;;;;;;4379311;60;21079;-34
2021/12/23 05:18:13;;;;;;;118.22;90.20;;;20.20;38.20;;;;;;4370359;60;21529;-34
2021/12/23 05:23:14;;;;;;;116.43;89.60;;;20.20;38.20;;;;;;4382895;60;21092;-32
2021/12/23 05:28:16;;;;;;;113.28;87.25;;;20.30;38.30;;;;;;4338771;61;21116;-35
2021/12/23 05:33:17;;;;;;;112.00;85.10;;;20.20;38.20;;;;;;4343335;60;21123;-34
2021/12/23 05:38:18;;;;;;;110.72;86.07;;;20.20;38.90;;;;;;4386707;60;21840;-34
2021/12/23 05:43:19;;;;;;;107.95;84.07;;;20.20;38.20;;;;;;4338933;64;21064;-32
2021/12/23 05:48:20;;;;;;;103.60;80.05;;;20.20;38.30;;;;;;4359619;60;21043;-35
2021/12/23 05:53:21;;;;;;;106.53;83.00;;;20.20;38.40;;;;;;4359300;60;21097;-35
2021/12/23 05:58:22;;;;;;;103.47;80.00;;;20.20;38.50;;;;;;4343124;60;21079;-31
2021/12/23 06:03:24;;;;;;;104.03;81.57;;;20.20;38.50;;;;;;4350769;60;21594;-35
2021/12/23 06:08:25;;;;;;;105.87;81.60;;;20.20;38.60;;;;;;4354440;60;21611;-34
2021/12/23 06:13:25;;;;;;;102.70;79.43;;;20.20;38.50;;;;;;4339606;64;21128;-34
2021/12/23 06:18:26;;;;;;;99.85;77.50;;;20.20;38.60;;;;;;4375071;60;21099;-35
2021/12/23 06:23:28;;;;;;;101.55;79.60;;;20.20;38.60;;;;;;4338031;64;21091;-37
2021/12/23 06:28:29;;;;;;;96.85;74.03;;;20.20;38.60;;;;;;4345648;60;21063;-35
2021/12/23 06:33:29;;;;;;;100.28;77.47;;;20.10;38.50;;;;;;4339111;64;21560;-36
2021/12/23 06:38:31;;;;;;;102.07;79.18;;;20.10;38.60;;;;;;4338167;64;21123;-36
2021/12/23 06:43:32;;;;;;;95.15;73.07;;;20.10;38.50;;;;;;4358847;60;21072;-34
2021/12/23 06:48:33;;;;;;;94.53;73.82;;;20.10;38.50;;;;;;4357549;60;21094;-37
2021/12/23 06:53:34;;;;;;;99.18;75.60;;;20.10;38.50;;;;;;4338917;61;21095;-35
2021/12/23 06:58:38;;;;;;;98.90;75.57;;;20.10;38.50;;;;;;4338375;64;21068;-34
2021/12/23 07:10:33;;;;;;;96.75;74.82;;;20.10;39.10;;;;;;4338871;64;21573;-34
2021/12/23 07:15:36;;;;;;;92.47;73.57;;;20.10;38.40;;;;;;4372457;60;21071;-36
2021/12/23 07:20:37;;;;;;;96.05;74.55;;;20.10;38.40;;;;;;4347880;60;22276;-35
2021/12/23 07:25:37;;;;;;;98.03;76.78;;;20.10;38.40;;;;;;4340206;60;21059;-36
2021/12/23 07:30:38;;;;;;;96.32;73.70;;;20.10;38.40;;;;;;4371105;60;21059;-30
2021/12/23 07:35:40;;;;;;;96.18;74.28;;;20.10;38.40;;;;;;4358889;60;21115;-30
2021/12/23 07:40:41;;;;;;;96.50;73.95;;;20.10;38.40;;;;;;4362352;60;21586;-35
2021/12/23 07:45:42;;;;;;;94.55;75.28;;;20.10;38.40;;;;;;4339815;60;21144;-35
2021/12/23 07:50:43;;;;;;;103.65;79.28;;;20.10;39.00;;;;;;4364430;60;21051;-36
2021/12/23 07:55:44;;;;;;;98.50;76.72;;;20.10;38.30;;;;;;4340771;60;21136;-33
2021/12/23 08:00:45;;;;;;;97.05;75.20;;;20.10;38.50;;;;;;4338749;64;21534;-29
2021/12/23 08:05:46;;;;;;;96.65;75.65;;;20.10;38.40;;;;;;4338553;64;21054;-36
2021/12/23 08:10:49;;;;;;;101.25;76.78;;;20.00;38.30;;;;;;4372824;60;21561;-34
2021/12/23 08:15:50;;;;;;;97.90;74.50;;;20.10;38.30;;;;;;4338237;64;21604;-32
2021/12/23 08:20:51;;;;;;;100.95;78.82;;;20.00;38.20;;;;;;4363708;60;21076;-33
2021/12/23 08:25:53;;;;;;;102.55;80.18;;;20.00;38.10;;;;;;4339164;60;21067;-35
2021/12/23 08:30:54;;;;;;;103.28;78.68;;;20.00;38.30;;;;;;4351824;60;22230;-37
2021/12/23 08:35:55;;;;;;;102.50;80.15;;;20.00;38.30;;;;;;4347586;60;21059;-36
2021/12/23 08:40:56;;;;;;;100.97;79.93;;;20.00;38.30;;;;;;4339618;64;21063;-36
2021/12/23 08:45:58;;;;;;;107.47;81.35;;;20.00;38.30;;;;;;4406904;60;21609;-34
2021/12/23 08:50:58;;;;;;;110.88;84.90;;;20.00;38.30;;;;;;4354471;60;21127;-34
2021/12/23 08:55:59;;;;;;;109.25;82.93;;;20.00;38.30;;;;;;4351985;60;21146;-34
2021/12/23 09:01:00;;;;;;;107.65;83.75;;;20.10;38.40;;;;;;4349004;60;21040;-28
2021/12/23 09:06:03;;;;;;;112.40;85.53;;;20.20;38.20;;;;;;4338682;64;21533;-31
2021/12/23 09:11:04;;;;;;;112.12;85.40;;;20.50;38.00;;;;;;4338803;64;21043;-35
2021/12/23 09:16:05;;;;;;;120.00;85.68;;;20.70;37.80;;;;;;4349775;60;21920;-36
2021/12/23 09:21:06;;;;;;;117.78;89.87;;;20.90;37.70;;;;;;4338737;64;22189;-35
2021/12/23 09:26:10;;;;;;;119.80;90.80;;;21.00;37.60;;;;;;4338982;64;21040;-37
2021/12/23 09:36:30;;;;;;;120.68;90.97;;;21.30;37.60;;;;;;4338582;60;21609;-34
2021/12/23 09:41:32;;;;;;;118.78;90.90;;;21.30;37.50;;;;;;4350877;60;21531;-34
2021/12/23 09:46:36;;;;;;;125.28;96.12;;;21.50;37.50;;;;;;4368090;60;21104;-35
2021/12/23 09:51:37;;;;;;;130.57;98.50;;;21.50;37.50;;;;;;4340149;60;21163;-35
2021/12/23 09:56:38;;;;;;;124.97;96.35;;;21.60;37.50;;;;;;4363620;60;21084;-34
2021/12/23 10:01:39;;;;;;;122.70;94.30;;;21.70;37.60;;;;;;4342993;60;21619;-37
2021/12/23 10:06:40;;;;;;;132.07;101.32;;;21.80;37.60;;;;;;4339088;64;21129;-34
2021/12/23 10:33:47;;;;;;;149.68;112.93;;;22.00;37.80;;;;;;4361409;60;21146;-35
2021/12/23 10:38:51;;;;;;;;;;;22.00;37.90;;;;;;4380263;60;21574;-36
2021/12/23 10:44:06;;;;;;;151.63;116.28;;;22.10;37.90;;;;;;4338396;64;20361;-32
2021/12/23 10:49:39;;;;;;;161.93;125.10;;;22.20;38.00;;;;;;4356371;60;21085;-34
2021/12/23 11:00:45;;;;;;;172.52;132.27;;;22.20;37.80;;;;;;4338768;64;21501;-35
2021/12/23 11:06:23;;;;;;;174.57;133.43;;;22.20;37.70;;;;;;4347945;60;21606;-32
2021/12/23 11:11:48;;;;;;;183.40;134.60;;;22.20;37.70;;;;;;4341722;60;21559;-37
2021/12/23 11:39:33;;;;;;;198.30;148.60;;;22.40;38.00;;;;;;4337745;60;21079;-35
2021/12/23 11:44:34;;;;;;;199.48;150.65;;;22.40;38.10;;;;;;4340005;60;21075;-32
2021/12/23 11:49:38;;;;;;;198.00;150.38;;;22.50;38.20;;;;;;4403594;60;21625;-39
2021/12/23 11:54:42;;;;;;;208.38;158.18;;;22.50;38.30;;;;;;4338698;64;21509;-35
2021/12/23 11:59:50;;;;;;;211.00;157.73;;;22.50;38.30;;;;;;4354828;60;21120;-36
2021/12/23 12:04:59;;;;;;;214.60;158.73;;;22.50;38.40;;;;;;4339494;60;21572;-36
2021/12/23 12:10:08;;;;;;;213.70;162.23;;;22.60;38.50;;;;;;4346115;60;21524;-37
2021/12/23 12:15:09;;;;;;;213.65;161.85;;;22.60;38.60;;;;;;4385084;60;21525;-34
2021/12/23 12:20:37;;;;;;;221.65;165.45;;;22.60;38.70;;;;;;4340586;60;21075;-34
2021/12/23 12:25:52;;;;;;;229.07;174.43;;;22.60;38.80;;;;;;4338821;64;21078;-36
2021/12/23 12:31:23;;;;;;;229.00;175.52;;;22.60;38.70;;;;;;4352128;60;21636;-35
2021/12/23 12:36:25;;;;;;;242.05;186.57;;;22.60;38.70;;;;;;4338825;64;21135;-35
2021/12/23 12:41:33;;;;;;;237.55;180.85;;;22.60;38.60;;;;;;4341319;60;21055;-36
2021/12/23 12:47:06;;;;;;;232.30;179.70;;;22.60;38.60;;;;;;4374260;60;21009;-34
2021/12/23 12:52:29;;;;;;;232.05;174.32;;;22.60;38.60;;;;;;4360478;60;21064;-36
2021/12/23 12:57:36;;;;;;;237.07;186.15;;;22.60;38.60;;;;;;4418557;60;21172;-35
2021/12/23 13:02:41;;;;;;;245.00;187.75;;;22.60;38.50;;;;;;4353627;60;21583;-34
2021/12/23 13:07:47;;;;;;;247.73;192.85;;;22.60;38.60;;;;;;4354210;60;21071;-35
2021/12/23 13:12:51;;;;;;;245.70;187.63;;;22.60;38.70;;;;;;4389397;60;21178;-34
2021/12/23 13:18:06;;;;;;;244.02;194.70;;;22.70;38.80;;;;;;4348962;60;21613;-35
2021/12/23 13:23:14;;;;;;;250.68;195.43;;;22.70;38.90;;;;;;4334370;60;21107;-34
2021/12/23 13:28:23;;;;;;;251.00;198.55;;;22.60;38.90;;;;;;4339488;60;21669;-36
2021/12/23 13:33:25;;;;;;;246.30;194.37;;;22.50;39.00;;;;;;4374854;60;21051;-29
2021/12/23 13:38:31;;;;;;;267.00;208.73;;;22.40;39.20;;;;;;4356836;60;21781;-35
2021/12/23 13:43:31;;;;;;;273.02;215.77;;;22.30;39.30;;;;;;4374412;60;21076;-37
2021/12/23 13:49:50;;;;;;;276.08;221.27;;;22.20;39.40;;;;;;4346245;60;21561;-37
2021/12/23 13:54:54;;;;;;;287.42;222.93;;;22.10;39.50;;;;;;4355985;60;22254;-35
2021/12/23 13:59:55;;;;;;;280.12;219.57;;;22.00;39.70;;;;;;4346151;60;21164;-37
2021/12/23 14:05:06;;;;;;;280.55;221.32;;;21.90;39.80;;;;;;4345912;60;21598;-37
2021/12/23 14:10:24;;;;;;;283.27;223.38;;;21.80;39.90;;;;;;4359703;60;21039;-36
2021/12/23 14:15:37;;;;;;;293.10;231.18;;;21.80;39.90;;;;;;4341217;60;21590;-36
2021/12/23 14:26:31;;;;;;;306.67;240.37;;;21.70;40.00;;;;;;4343280;60;21585;-37
2021/12/23 14:31:34;;;;;;;295.00;234.25;;;21.60;40.10;;;;;;4339953;60;21553;-31
2021/12/23 14:36:38;;;;;;;305.98;239.15;;;21.60;40.20;;;;;;4366473;60;21156;-31
2021/12/23 14:41:45;;;;;;;306.48;243.73;;;21.50;40.20;;;;;;4338866;64;21051;-36
2021/12/23 14:46:56;;;;;;;313.00;245.50;;;21.50;40.30;;;;;;4339014;64;21040;-35
2021/12/23 14:52:24;;;;;;;305.92;240.85;;;21.40;41.00;;;;;;4393377;60;21533;-35
2021/12/23 14:57:38;;;;;;;312.38;244.43;;;21.40;40.40;;;;;;4371787;60;21610;-34
2021/12/23 15:02:39;;;;;;;309.55;249.15;;;21.40;40.50;;;;;;4339352;60;21162;-35
2021/12/23 15:07:59;;;;;;;310.60;244.20;;;21.30;40.50;;;;;;4360690;60;21015;-37
2021/12/23 15:13:11;;;;;;;321.52;252.85;;;21.30;40.60;;;;;;4355823;60;21597;-35
2021/12/23 15:25:39;;;;;;;307.02;239.05;;;21.20;40.60;;;;;;4361691;60;21144;-38
2021/12/23 15:30:40;;;;;;;324.10;252.57;;;21.20;40.60;;;;;;4355043;60;21096;-34
2021/12/23 15:35:41;;;;;;;324.15;258.25;;;21.20;40.60;;;;;;4366309;60;21072;-35
2021/12/23 15:40:42;;;;;;;327.40;261.48;;;21.10;40.70;;;;;;4350438;60;21059;-34
2021/12/23 15:45:43;;;;;;;332.12;264.35;;;21.10;40.80;;;;;;4369194;60;21423;-34
2021/12/23 15:50:49;;;;;;;333.10;263.52;;;21.10;40.80;;;;;;4370779;60;21585;-35
2021/12/23 15:55:49;;;;;;;340.73;268.10;;;21.10;40.80;;;;;;4344116;60;21678;-30
2021/12/23 16:00:51;;;;;;;337.88;267.00;;;21.00;40.80;;;;;;4365657;60;21075;-36
2021/12/23 16:11:11;;;;;;;340.50;269.23;;;21.00;40.80;;;;;;4338712;64;21164;-34
2021/12/23 16:16:12;;;;;;;343.75;273.33;;;21.00;40.90;;;;;;4366456;60;21649;-34
2021/12/23 16:21:12;;;;;;;343.70;272.15;;;21.00;40.90;;;;;;4385512;60;21147;-35
2021/12/23 16:26:13;;;;;;;344.40;271.48;;;20.90;40.90;;;;;;4347894;60;21167;-35
2021/12/23 16:31:15;;;;;;;335.25;269.00;;;20.90;40.90;;;;;;4339738;60;21156;-31
2021/12/23 16:36:16;;;;;;;343.15;273.60;;;20.90;41.00;;;;;;4340946;60;22345;-34
2021/12/23 16:41:19;;;;;;;347.92;275.15;;;20.90;40.90;;;;;;4338493;64;21087;-29
2021/12/23 16:46:20;;;;;;;344.87;276.20;;;20.90;41.00;;;;;;4373520;60;21162;-37
2021/12/23 16:51:21;;;;;;;355.85;281.23;;;20.90;41.00;;;;;;4347014;60;21083;-36
2021/12/23 16:57:33;;;;;;;334.45;256.85;;;20.90;41.00;;;;;;4361793;60;21633;-33
2021/12/23 17:02:34;;;;;;;355.23;282.67;;;20.90;41.10;;;;;;4341718;60;21565;-33
2021/12/23 17:07:35;;;;;;;350.38;276.10;;;20.80;41.00;;;;;;4342655;60;21047;-34
2021/12/23 17:12:36;;;;;;;360.08;284.60;;;20.80;41.10;;;;;;4350008;60;21132;-37
2021/12/23 17:17:38;;;;;;;364.05;288.83;;;20.80;41.10;;;;;;4345635;60;21518;-34
2021/12/23 17:22:39;;;;;;;356.48;282.55;;;20.80;41.10;;;;;;4362910;60;21584;-35
2021/12/23 17:27:43;;;;;;;360.38;287.08;;;20.80;41.10;;;;;;4338830;64;21126;-34
2021/12/23 17:32:45;;;;;;;367.20;291.88;;;20.80;41.10;;;;;;4338383;64;21063;-36
2021/12/23 17:37:46;;;;;;;354.33;274.27;;;20.80;41.20;;;;;;4343350;60;21566;-36
2021/12/23 17:42:47;;;;;;;369.90;293.15;;;20.80;41.20;;;;;;4345239;60;21582;-36
2021/12/23 17:47:48;;;;;;;363.23;286.98;;;20.80;41.20;;;;;;4358421;60;21086;-35
2021/12/23 17:52:50;;;;;;;368.73;287.30;;;20.80;41.20;;;;;;4338846;64;21051;-37
2021/12/23 17:57:51;;;;;;;374.58;296.58;;;20.70;41.20;;;;;;4344450;60;21525;-34
2021/12/23 18:02:53;;;;;;;381.95;301.12;;;20.70;41.20;;;;;;4358840;60;21095;-36
2021/12/23 18:07:54;;;;;;;375.48;297.08;;;20.70;41.20;;;;;;4347771;60;21052;-32
2021/12/23 18:12:55;;;;;;;368.95;288.58;;;20.70;41.30;;;;;;4343864;60;21063;-34
2021/12/23 18:17:56;;;;;;;370.15;293.33;;;20.70;41.30;;;;;;4384663;60;21597;-35
2021/12/23 18:23:00;;;;;;;372.90;290.75;;;20.70;41.40;;;;;;4366964;60;21573;-34
2021/12/23 18:28:02;;;;;;;375.52;298.25;;;20.70;41.30;;;;;;4354754;60;21152;-35
2021/12/23 18:33:04;;;;;;;377.17;293.63;;;20.70;41.30;;;;;;4352510;60;21060;-36
2021/12/23 18:38:11;;;;;;;378.23;297.52;;;20.70;41.30;;;;;;4342977;60;22307;-35
2021/12/23 18:43:14;;;;;;;371.02;294.45;;;20.60;41.30;;;;;;4346334;60;21603;-34
2021/12/23 18:48:16;;;;;;;387.05;305.65;;;20.70;41.40;;;;;;4360789;60;21646;-34
2021/12/23 18:53:17;;;;;;;379.90;299.12;;;20.70;41.40;;;;;;4351483;60;21056;-33
2021/12/23 18:58:19;;;;;;;382.30;302.77;;;20.60;41.30;;;;;;4389257;60;21136;-35
2021/12/23 19:04:08;;;;;;;382.77;299.85;;;20.60;41.40;;;;;;4339070;60;21639;-36
2021/12/23 19:09:09;;;;;;;373.77;294.70;;;20.60;41.40;;;;;;4339134;60;21593;-35
2021/12/23 19:14:11;;;;;;;386.98;302.33;;;20.60;41.40;;;;;;4338728;64;21108;-36
2021/12/23 19:19:12;;;;;;;381.67;299.50;;;20.60;41.40;;;;;;4341648;60;21565;-36
2021/12/23 19:24:14;;;;;;;380.35;296.77;;;20.60;41.40;;;;;;4384234;60;21580;-32
2021/12/23 19:29:15;;;;;;;395.42;311.23;;;20.60;41.50;;;;;;4362121;60;21609;-35
2021/12/23 19:34:16;;;;;;;379.63;291.80;;;20.60;41.50;;;;;;4373467;60;21184;-38
2021/12/23 19:39:17;;;;;;;383.00;298.33;;;20.60;41.50;;;;;;4344906;60;21553;-34
2021/12/23 19:44:19;;;;;;;386.55;300.83;;;20.50;41.40;;;;;;4340512;60;21156;-35
2021/12/23 19:49:21;;;;;;;373.98;297.77;;;20.50;41.50;;;;;;4339221;60;21578;-35
2021/12/23 19:54:30;;;;;;;388.70;309.98;;;20.50;41.50;;;;;;4419531;60;21172;-37
2021/12/23 19:59:31;;;;;;;376.25;295.58;;;20.50;41.50;;;;;;4349202;60;21533;-36
2021/12/23 20:04:32;;;;;;;384.60;295.40;;;20.50;41.50;;;;;;4369061;60;21044;-36
2021/12/23 20:09:34;;;;;;;387.20;305.70;;;20.50;41.50;;;;;;4339768;60;21146;-36
2021/12/23 20:14:35;;;;;;;381.45;300.02;;;20.50;41.60;;;;;;4349532;60;21624;-36
2021/12/23 20:19:37;;;;;;;385.70;305.95;;;20.50;41.60;;;;;;4354209;60;21150;-35
2021/12/23 20:24:39;;;;;;;382.40;300.65;;;20.50;41.60;;;;;;4378255;60;21067;-34
2021/12/23 20:29:40;;;;;;;369.77;285.35;;;20.50;41.60;;;;;;4419743;60;21713;-34
2021/12/23 20:34:41;;;;;;;374.75;298.33;;;20.50;41.60;;;;;;4347510;60;21059;-36
2021/12/23 20:39:42;;;;;;;375.42;295.33;;;20.50;41.60;;;;;;4362902;60;21104;-36
2021/12/23 20:44:43;;;;;;;375.23;291.33;;;20.50;41.70;;;;;;4354494;60;21112;-37
2021/12/23 20:49:44;;;;;;;373.25;289.50;;;20.50;41.70;;;;;;4343913;60;21554;-33
2021/12/23 20:54:50;;;;;;;367.27;287.50;;;20.50;41.70;;;;;;4379245;60;21613;-35
2021/12/23 20:59:51;;;;;;;366.95;290.17;;;20.50;41.70;;;;;;4386062;60;21594;-34
2021/12/23 21:04:51;;;;;;;369.02;288.23;;;20.40;41.60;;;;;;4349244;60;21159;-31
2021/12/23 21:09:54;;;;;;;380.58;304.92;;;20.50;41.70;;;;;;4384042;60;21571;-35
2021/12/23 21:14:55;;;;;;;378.20;297.92;;;20.40;41.60;;;;;;4342841;60;21063;-35
2021/12/23 21:19:56;;;;;;;378.80;292.50;;;20.40;41.60;;;;;;4338665;60;21208;-35
2021/12/23 21:24:57;;;;;;;374.40;299.90;;;20.40;41.60;;;;;;4372698;60;21055;-36
2021/12/23 21:29:58;;;;;;;368.23;286.70;;;20.40;41.70;;;;;;4360633;60;21071;-35
2021/12/23 21:34:59;;;;;;;369.50;295.45;;;20.40;41.60;;;;;;4343604;60;21120;-36
2021/12/23 21:40:00;;;;;;;360.65;281.23;;;20.40;41.60;;;;;;4338326;64;21133;-36
2021/12/23 21:45:02;;;;;;;349.67;267.33;;;20.40;41.60;;;;;;4338908;64;21192;-36
2021/12/23 21:50:07;;;;;;;375.48;293.10;;;20.40;41.60;;;;;;4362903;60;21059;-38
2021/12/23 21:55:19;;;;;;;359.58;282.35;;;20.40;41.60;;;;;;4355888;60;21059;-36
2021/12/23 22:00:23;;;;;;;359.80;284.92;;;20.40;41.60;;;;;;4339207;64;21518;-33
2021/12/23 22:05:25;;;;;;;355.67;275.50;;;20.40;41.60;;;;;;4358262;60;21124;-32
2021/12/23 22:10:26;;;;;;;354.27;278.62;;;20.40;41.60;;;;;;4367591;60;21075;-33
2021/12/23 22:15:30;;;;;;;364.02;285.95;;;20.40;41.60;;;;;;4351056;60;21532;-35
2021/12/23 22:20:31;;;;;;;358.20;282.23;;;20.40;41.60;;;;;;4354981;60;21112;-35
2021/12/23 22:25:33;;;;;;;362.77;284.55;;;20.30;41.50;;;;;;4352426;60;22663;-34
2021/12/23 22:30:34;;;;;;;345.27;262.25;;;20.30;41.50;;;;;;4375949;60;21231;-34
2021/12/23 22:35:35;;;;;;;360.98;287.10;;;20.30;41.50;;;;;;4353359;60;21527;-33
2021/12/23 22:40:36;;;;;;;362.98;286.17;;;20.30;41.40;;;;;;4352301;60;21091;-33
2021/12/23 22:45:37;;;;;;;354.30;279.83;;;20.30;41.40;;;;;;4366687;60;21163;-33
2021/12/23 22:50:38;;;;;;;355.70;279.42;;;20.30;41.40;;;;;;4375922;60;21414;-34
2021/12/23 22:55:40;;;;;;;346.42;272.20;;;20.30;41.40;;;;;;4357980;60;21052;-36
2021/12/23 23:00:50;;;;;;;330.40;256.65;;;20.30;41.40;;;;;;4364297;60;21545;-36
2021/12/23 23:05:53;;;;;;;346.27;272.63;;;20.30;41.40;;;;;;4339842;64;21517;-37
2021/12/23 23:11:04;;;;;;;342.02;267.62;;;20.30;41.40;;;;;;4339871;60;21127;-36
2021/12/23 23:21:29;;;;;;;336.37;259.40;;;20.30;41.40;;;;;;4338545;60;21156;-33
2021/12/23 23:26:41;;;;;;;335.80;260.10;;;20.30;41.30;;;;;;4356967;60;21096;-35
2021/12/23 23:37:25;;;;;;;343.98;267.90;;;20.30;41.30;;;;;;4338676;60;21123;-36
2021/12/23 23:42:35;;;;;;;350.05;272.98;;;20.20;41.30;;;;;;4367835;60;21540;-36
2021/12/23 23:47:36;;;;;;;343.00;270.63;;;20.30;41.30;;;;;;4339483;64;21534;-36
2021/12/23 23:52:37;;;;;;;335.60;264.73;;;20.20;41.20;;;;;;4338993;64;21104;-35
2021/12/23 23:57:38;;;;;;;346.27;269.30;;;20.20;41.20;;;;;;4342160;60;21585;-35
